Time;durP1;ratioP1;P1;durP2;ratioP2;P2;SDS_P1;SDS_P2;PMS_P1;PMS_P2;Temp;Humidity;BMP_temperature;BMP_pressure;BME280_temperature;BME280_humidity;BME280_pressure;Samples;Min_cycle;Max_cycle;Signal;HPM_P1;HPM_P2
2021/04/13 00:02:16;;;;;;;0.10;0.10;;;5.70;99.90;;;;;;5028908;28;20583;-70
2021/04/13 00:04:42;;;;;;;0.10;0.10;;;5.70;99.90;;;;;;5028231;28;20662;-70
2021/04/13 00:07:10;;;;;;;0.10;0.10;;;5.70;99.90;;;;;;5029361;28;20212;-69
2021/04/13 00:20:14;;;;;;;0.10;0.10;;;5.70;99.90;;;;;;5453293;23;20320;-72
2021/04/13 00:22:41;;;;;;;0.10;0.10;;;5.60;99.90;;;;;;4982694;28;20178;-73
2021/04/13 00:25:09;;;;;;;0.10;0.10;;;5.70;99.90;;;;;;4989209;28;20168;-73
2021/04/13 00:27:35;;;;;;;0.10;0.10;;;5.70;99.90;;;;;;4988686;28;20512;-73
2021/04/13 00:30:18;;;;;;;0.10;0.10;;;5.70;99.90;;;;;;4989063;28;20202;-72
2021/04/13 00:33:01;;;;;;;0.10;0.10;;;5.70;99.90;;;;;;4989199;28;20160;-72
2021/04/13 00:36:00;;;;;;;0.10;0.10;;;5.70;99.90;;;;;;4989163;28;20191;-72
2021/04/13 00:38:30;;;;;;;0.10;0.10;;;5.70;99.90;;;;;;4988550;28;20195;-72
2021/04/13 00:41:19;;;;;;;0.10;0.10;;;5.60;99.90;;;;;;4988479;28;20218;-72
2021/04/13 00:43:53;;;;;;;0.10;0.10;;;5.60;99.90;;;;;;4980487;28;20187;-72
2021/04/13 00:46:33;;;;;;;0.10;0.10;;;5.70;99.90;;;;;;4989080;28;20306;-72
2021/04/13 00:49:01;;;;;;;0.10;0.10;;;5.70;99.90;;;;;;4989011;28;20536;-74
2021/04/13 00:51:41;;;;;;;0.10;0.10;;;5.60;99.90;;;;;;4988900;28;20202;-73
2021/04/13 00:54:18;;;;;;;0.10;0.10;;;5.70;99.90;;;;;;4988613;28;20193;-73
2021/04/13 00:56:44;;;;;;;0.10;0.10;;;5.60;99.90;;;;;;4989043;28;20268;-73
2021/04/13 00:59:19;;;;;;;0.10;0.10;;;5.60;99.90;;;;;;4988899;28;20590;-74
2021/04/13 01:01:57;;;;;;;0.10;0.10;;;5.60;99.90;;;;;;4987264;28;20217;-73
2021/04/13 01:05:06;;;;;;;0.10;0.10;;;5.60;99.90;;;;;;4988959;28;20163;-74
2021/04/13 01:07:32;;;;;;;0.10;0.10;;;5.60;99.90;;;;;;4988749;28;20184;-73
2021/04/13 01:10:07;;;;;;;0.10;0.10;;;5.60;99.90;;;;;;4989157;28;20206;-73
2021/04/13 01:12:37;;;;;;;0.10;0.10;;;5.60;99.90;;;;;;4990860;28;20198;-73
2021/04/13 01:15:05;;;;;;;0.10;0.10;;;5.50;99.90;;;;;;4992432;28;20183;-73
2021/04/13 01:17:32;;;;;;;0.10;0.10;;;5.50;99.90;;;;;;4991877;28;20250;-73
2021/04/13 01:20:05;;;;;;;0.10;0.10;;;5.50;99.90;;;;;;4990921;28;20230;-73
2021/04/13 01:22:40;;;;;;;0.10;0.10;;;5.50;99.90;;;;;;4988614;28;20200;-73
2021/04/13 01:25:15;;;;;;;0.10;0.10;;;5.40;99.90;;;;;;4971708;29;20168;-73
2021/04/13 01:27:47;;;;;;;0.10;0.10;;;5.30;99.90;;;;;;4988572;28;20201;-73
2021/04/13 01:30:15;;;;;;;0.20;0.20;;;5.30;99.90;;;;;;4991004;28;20227;-73
2021/04/13 01:32:41;;;;;;;0.13;0.13;;;5.20;99.90;;;;;;4992249;28;20199;-73
2021/04/13 01:35:12;;;;;;;0.10;0.10;;;5.20;99.90;;;;;;4992262;28;20156;-73
2021/04/13 01:38:04;;;;;;;0.20;0.20;;;5.20;99.90;;;;;;4992155;28;20155;-73
2021/04/13 01:41:28;;;;;;;0.10;0.10;;;5.20;99.90;;;;;;4992127;28;20246;-73
2021/04/13 01:43:32;;;;;;;0.20;0.20;;;5.20;99.90;;;;;;4989975;28;20197;-73
2021/04/13 01:45:59;;;;;;;0.10;0.10;;;5.20;99.90;;;;;;4990566;28;20333;-73
2021/04/13 01:48:26;;;;;;;0.10;0.10;;;5.10;99.90;;;;;;4991950;28;20711;-73
2021/04/13 01:50:58;;;;;;;0.10;0.10;;;5.10;99.90;;;;;;4990291;28;20202;-73
2021/04/13 01:53:26;;;;;;;0.10;0.10;;;5.20;99.90;;;;;;4990554;28;20172;-74
2021/04/13 01:55:59;;;;;;;0.10;0.10;;;5.10;99.90;;;;;;4991831;28;20163;-73
2021/04/13 01:58:31;;;;;;;0.10;0.10;;;5.00;99.90;;;;;;4990525;28;20171;-73
2021/04/13 02:01:07;;;;;;;0.10;0.10;;;5.10;99.90;;;;;;4990299;28;20262;-74
2021/04/13 02:03:45;;;;;;;0.17;0.17;;;5.00;99.90;;;;;;4991614;28;20163;-73
2021/04/13 02:06:28;;;;;;;1.00;1.00;;;5.00;99.90;;;;;;4991686;28;20160;-73
2021/04/13 02:09:05;;;;;;;0.10;0.10;;;5.00;99.90;;;;;;4991690;28;20210;-73
2021/04/13 02:11:34;;;;;;;0.10;0.10;;;5.00;99.90;;;;;;4991518;28;20183;-73
2021/04/13 02:14:06;;;;;;;0.17;0.17;;;5.00;99.90;;;;;;4993549;28;20158;-73
2021/04/13 02:16:39;;;;;;;0.15;0.15;;;5.00;99.90;;;;;;4993362;28;20179;-73
2021/04/13 02:19:10;;;;;;;0.10;0.10;;;5.00;99.90;;;;;;4991984;28;20227;-73
2021/04/13 02:21:47;;;;;;;0.20;0.20;;;5.00;99.90;;;;;;4990986;28;20259;-72
2021/04/13 02:24:20;;;;;;;0.20;0.20;;;4.90;99.90;;;;;;4991165;28;20173;-72
2021/04/13 02:26:50;;;;;;;0.15;0.15;;;4.90;99.90;;;;;;4992189;28;20237;-72
2021/04/13 02:29:19;;;;;;;0.10;0.10;;;5.00;99.90;;;;;;4989705;28;20206;-74
2021/04/13 02:31:55;;;;;;;0.20;0.20;;;5.00;99.90;;;;;;4991014;28;20196;-74
2021/04/13 02:34:29;;;;;;;0.10;0.10;;;5.00;99.90;;;;;;4990936;28;20193;-73
2021/04/13 02:37:06;;;;;;;0.10;0.10;;;5.00;99.90;;;;;;4991040;28;20166;-73
2021/04/13 02:39:33;;;;;;;0.10;0.10;;;5.00;99.90;;;;;;4990780;28;20178;-74
2021/04/13 02:42:16;;;;;;;0.10;0.10;;;5.00;99.90;;;;;;4990685;28;20187;-73
2021/04/13 02:44:42;;;;;;;0.10;0.10;;;5.00;99.90;;;;;;4989174;28;20195;-72
2021/04/13 02:47:12;;;;;;;0.10;0.10;;;4.90;99.90;;;;;;4989476;28;20195;-74
2021/04/13 02:49:42;;;;;;;0.20;0.20;;;4.90;99.90;;;;;;4990880;28;20195;-75
2021/04/13 02:52:17;;;;;;;0.25;0.25;;;4.90;99.90;;;;;;4990602;28;20194;-73
2021/04/13 02:54:50;;;;;;;0.55;0.55;;;5.00;99.90;;;;;;4990911;28;20159;-74
2021/04/13 02:57:31;;;;;;;0.20;0.20;;;5.00;99.90;;;;;;4990729;28;20167;-74
2021/04/13 03:00:06;;;;;;;0.10;0.10;;;4.90;99.90;;;;;;4990752;28;20191;-74
2021/04/13 03:02:35;;;;;;;0.20;0.20;;;5.00;99.90;;;;;;4990463;28;20201;-73
2021/04/13 03:05:01;;;;;;;0.10;0.10;;;5.00;99.90;;;;;;4990496;28;20603;-74
2021/04/13 03:07:29;;;;;;;0.10;0.10;;;5.00;99.90;;;;;;4990235;28;20191;-74
2021/04/13 03:10:05;;;;;;;0.10;0.10;;;5.00;99.90;;;;;;4990236;28;20155;-73
2021/04/13 03:12:34;;;;;;;0.13;0.13;;;5.00;99.90;;;;;;4990290;28;20187;-72
2021/04/13 03:15:00;;;;;;;0.10;0.10;;;5.10;99.90;;;;;;4990189;28;20171;-73
2021/04/13 03:17:30;;;;;;;0.17;0.17;;;5.10;99.90;;;;;;4990337;28;20167;-74
2021/04/13 03:20:07;;;;;;;0.10;0.10;;;5.00;99.90;;;;;;4988034;28;20606;-73
2021/04/13 03:22:35;;;;;;;0.10;0.10;;;5.00;99.90;;;;;;4989852;28;20282;-73
2021/04/13 03:25:03;;;;;;;0.20;0.20;;;5.10;99.90;;;;;;4990014;28;20227;-73
2021/04/13 03:27:31;;;;;;;0.10;0.10;;;5.10;99.90;;;;;;4987342;28;20503;-74
2021/04/13 03:30:04;;;;;;;0.10;0.10;;;5.20;99.90;;;;;;4989706;28;20167;-73
2021/04/13 03:32:53;;;;;;;0.10;0.10;;;5.10;99.90;;;;;;4989460;28;20274;-73
2021/04/13 03:35:22;;;;;;;0.25;0.25;;;5.20;99.90;;;;;;4990166;28;20175;-73
2021/04/13 03:37:49;;;;;;;0.30;0.30;;;5.20;99.90;;;;;;4989932;28;20206;-73
2021/04/13 03:40:19;;;;;;;0.10;0.10;;;5.10;99.90;;;;;;4988386;28;20171;-74
2021/04/13 03:42:45;;;;;;;0.15;0.15;;;5.10;99.90;;;;;;4989575;28;20191;-73
2021/04/13 03:45:16;;;;;;;0.10;0.10;;;5.10;99.90;;;;;;4989917;28;20164;-73
2021/04/13 03:47:46;;;;;;;0.10;0.10;;;5.10;99.90;;;;;;4988070;28;20206;-73
2021/04/13 03:50:18;;;;;;;0.32;0.32;;;5.10;99.90;;;;;;4989639;28;20164;-75
2021/04/13 03:52:44;;;;;;;0.00;0.00;;;5.10;99.90;;;;;;4988155;28;20199;-73
2021/04/13 03:55:22;;;;;;;0.10;0.10;;;5.20;99.90;;;;;;4988694;28;20166;-73
2021/04/13 03:57:49;;;;;;;0.10;0.10;;;5.20;99.90;;;;;;4989971;28;20246;-73
2021/04/13 04:00:21;;;;;;;0.10;0.10;;;5.20;99.90;;;;;;4988224;28;20186;-74
2021/04/13 04:02:48;;;;;;;0.10;0.10;;;5.20;99.90;;;;;;4989147;28;20198;-74
2021/04/13 04:05:18;;;;;;;0.10;0.10;;;5.20;99.90;;;;;;4989515;28;20586;-74
2021/04/13 04:08:01;;;;;;;0.10;0.10;;;5.20;99.90;;;;;;4987960;28;20218;-74
2021/04/13 04:10:42;;;;;;;0.10;0.10;;;5.20;99.90;;;;;;4989070;28;20156;-74
2021/04/13 04:13:09;;;;;;;0.10;0.10;;;5.20;99.90;;;;;;4988003;28;20163;-73
2021/04/13 04:15:48;;;;;;;0.10;0.10;;;5.20;99.90;;;;;;4988100;28;20278;-74
2021/04/13 04:18:34;;;;;;;0.10;0.10;;;5.20;99.90;;;;;;4987508;28;20186;-73
2021/04/13 04:21:32;;;;;;;0.10;0.10;;;5.20;99.90;;;;;;4981562;28;20229;-73
2021/04/13 04:24:17;;;;;;;0.10;0.10;;;5.20;99.90;;;;;;4987299;28;20226;-74
2021/04/13 04:26:51;;;;;;;0.10;0.10;;;5.20;99.90;;;;;;4983900;28;20187;-72
2021/04/13 04:29:20;;;;;;;0.10;0.10;;;5.20;99.90;;;;;;4985127;28;20182;-73
2021/04/13 04:31:46;;;;;;;0.20;0.20;;;5.20;99.90;;;;;;4988964;28;20188;-73
2021/04/13 04:34:15;;;;;;;0.10;0.10;;;5.20;99.90;;;;;;4988813;28;20195;-73
2021/04/13 04:36:42;;;;;;;0.10;0.10;;;5.20;99.90;;;;;;4987659;28;20202;-73
2021/04/13 04:39:32;;;;;;;0.10;0.10;;;5.20;99.90;;;;;;4990835;28;20246;-73
2021/04/13 04:42:10;;;;;;;0.20;0.20;;;5.20;99.90;;;;;;4990416;28;20214;-73
2021/04/13 04:44:37;;;;;;;0.10;0.10;;;5.20;99.90;;;;;;4991874;28;20162;-74
2021/04/13 04:47:22;;;;;;;0.20;0.20;;;5.20;99.90;;;;;;4991463;28;20216;-73
2021/04/13 04:49:49;;;;;;;0.20;0.20;;;5.20;99.90;;;;;;4992376;28;20179;-73
2021/04/13 04:52:15;;;;;;;0.10;0.10;;;5.20;99.90;;;;;;4992431;28;20578;-73
2021/04/13 04:54:41;;;;;;;0.10;0.10;;;5.20;99.90;;;;;;4992663;28;20160;-72
2021/04/13 04:57:06;;;;;;;0.10;0.10;;;5.20;99.90;;;;;;4992803;28;20246;-74
2021/04/13 04:59:32;;;;;;;0.20;0.20;;;5.10;99.90;;;;;;4992525;28;20167;-74
2021/04/13 05:01:58;;;;;;;0.13;0.13;;;5.10;99.90;;;;;;4990253;28;20269;-73
2021/04/13 05:04:24;;;;;;;0.30;0.30;;;5.10;99.90;;;;;;4987682;28;20187;-73
2021/04/13 05:06:50;;;;;;;0.20;0.20;;;5.10;99.90;;;;;;4992078;28;20194;-72
2021/04/13 05:09:16;;;;;;;0.20;0.20;;;5.00;99.90;;;;;;4990703;28;20202;-74
2021/04/13 05:11:42;;;;;;;0.10;0.10;;;5.10;99.90;;;;;;4991956;28;20218;-73
2021/04/13 05:14:08;;;;;;;0.10;0.10;;;5.10;99.90;;;;;;4992164;28;20175;-73
2021/04/13 05:16:34;;;;;;;0.10;0.10;;;5.10;99.90;;;;;;4991820;28;20163;-73
2021/04/13 05:19:00;;;;;;;0.20;0.20;;;5.10;99.90;;;;;;4991362;28;20321;-73
2021/04/13 05:21:25;;;;;;;0.13;0.13;;;5.10;99.90;;;;;;4990490;28;20191;-73
2021/04/13 05:23:51;;;;;;;0.10;0.10;;;5.10;99.90;;;;;;4991970;28;20682;-77
2021/04/13 05:26:17;;;;;;;0.20;0.20;;;5.10;99.90;;;;;;4991335;28;20179;-73
2021/04/13 05:28:43;;;;;;;0.10;0.10;;;5.10;99.90;;;;;;4991594;28;20226;-73
2021/04/13 05:31:09;;;;;;;0.10;0.10;;;5.10;99.90;;;;;;4983105;28;20572;-73
2021/04/13 05:33:35;;;;;;;0.20;0.20;;;5.10;99.90;;;;;;4989531;28;20209;-73
2021/04/13 05:36:03;;;;;;;0.10;0.10;;;5.10;99.90;;;;;;4991246;28;20670;-71
2021/04/13 05:38:32;;;;;;;0.10;0.10;;;5.20;99.90;;;;;;4990223;28;20265;-74
2021/04/13 05:41:06;;;;;;;0.10;0.10;;;5.20;99.90;;;;;;4989825;28;20261;-72
2021/04/13 05:43:32;;;;;;;0.10;0.10;;;5.30;99.90;;;;;;4989759;28;20178;-74
2021/04/13 05:46:01;;;;;;;0.43;0.43;;;5.30;99.90;;;;;;4989807;28;20179;-73
2021/04/13 05:48:28;;;;;;;0.10;0.10;;;5.20;99.90;;;;;;4990065;28;20231;-72
2021/04/13 05:50:54;;;;;;;0.10;0.10;;;5.20;99.90;;;;;;4969953;28;20323;-74
2021/04/13 05:53:20;;;;;;;0.10;0.10;;;5.20;99.90;;;;;;4969102;28;20184;-73
2021/04/13 05:55:47;;;;;;;0.10;0.10;;;5.20;99.90;;;;;;4965834;28;20172;-73
2021/04/13 05:58:18;;;;;;;0.10;0.10;;;5.20;99.90;;;;;;4964931;29;20180;-73
2021/04/13 06:00:46;;;;;;;0.10;0.10;;;5.30;99.90;;;;;;4964702;29;20186;-73
2021/04/13 06:03:16;;;;;;;0.10;0.10;;;5.30;99.90;;;;;;4966163;28;20213;-72
2021/04/13 06:05:42;;;;;;;0.30;0.30;;;5.30;99.90;;;;;;4965989;28;20171;-72
2021/04/13 06:08:10;;;;;;;0.20;0.20;;;5.20;99.90;;;;;;4966175;28;20230;-72
2021/04/13 06:10:37;;;;;;;0.55;0.55;;;5.30;99.90;;;;;;4966359;28;20172;-72
2021/04/13 06:13:04;;;;;;;0.10;0.10;;;5.20;99.90;;;;;;4966346;28;20282;-73
2021/04/13 06:15:32;;;;;;;0.10;0.10;;;5.20;99.90;;;;;;4965660;28;20153;-73
2021/04/13 06:17:58;;;;;;;0.10;0.10;;;5.20;99.90;;;;;;4966300;28;20164;-72
2021/04/13 06:20:26;;;;;;;0.10;0.10;;;5.20;99.90;;;;;;4964601;28;20322;-73
2021/04/13 06:22:53;;;;;;;0.10;0.10;;;5.20;99.90;;;;;;4965057;28;20203;-73
2021/04/13 06:25:22;;;;;;;0.10;0.10;;;5.30;99.90;;;;;;4965870;28;20168;-73
2021/04/13 06:27:49;;;;;;;0.10;0.10;;;5.30;99.90;;;;;;4978386;28;20253;-73
2021/04/13 06:30:16;;;;;;;0.22;0.22;;;5.20;99.90;;;;;;4985367;28;20218;-74
2021/04/13 06:32:42;;;;;;;0.20;0.20;;;5.20;99.90;;;;;;4983852;28;20226;-73
2021/04/13 06:35:09;;;;;;;0.17;0.17;;;5.20;99.90;;;;;;4985721;28;20160;-73
2021/04/13 06:37:38;;;;;;;0.10;0.10;;;5.10;99.90;;;;;;4983518;28;20191;-74
2021/04/13 06:40:06;;;;;;;0.40;0.40;;;5.00;99.90;;;;;;4985578;28;20155;-74
2021/04/13 06:42:47;;;;;;;0.10;0.10;;;5.00;99.90;;;;;;4983461;28;20222;-73
2021/04/13 06:45:37;;;;;;;0.10;0.10;;;5.00;99.90;;;;;;4966121;28;20170;-72
2021/04/13 06:48:11;;;;;;;0.20;0.20;;;5.00;99.90;;;;;;4965058;28;20226;-73
2021/04/13 06:51:06;;;;;;;0.10;0.10;;;5.00;99.90;;;;;;4965452;28;20163;-72
2021/04/13 06:53:53;;;;;;;0.10;0.10;;;5.00;99.90;;;;;;4983816;28;20984;-72
2021/04/13 06:56:25;;;;;;;0.10;0.10;;;5.00;99.90;;;;;;4983474;28;20167;-72
2021/04/13 06:59:30;;;;;;;0.10;0.10;;;4.70;99.90;;;;;;4982814;28;20183;-72
2021/04/13 07:01:59;;;;;;;0.10;0.10;;;4.70;99.90;;;;;;4984565;28;20681;-72
2021/04/13 07:04:58;;;;;;;0.10;0.10;;;4.50;99.90;;;;;;4983584;28;20191;-72
2021/04/13 07:07:24;;;;;;;0.20;0.20;;;4.30;99.90;;;;;;4983487;28;20237;-73
2021/04/13 07:10:23;;;;;;;0.10;0.10;;;4.20;99.90;;;;;;4982975;28;20171;-73
2021/04/13 07:13:12;;;;;;;0.10;0.10;;;4.00;99.90;;;;;;4984722;28;20188;-72
2021/04/13 07:15:50;;;;;;;0.10;0.10;;;3.90;99.90;;;;;;4983198;28;20207;-73
2021/04/13 07:18:28;;;;;;;0.20;0.20;;;3.80;99.90;;;;;;4984871;28;20171;-73
2021/04/13 07:21:16;;;;;;;0.28;0.28;;;3.80;99.90;;;;;;4984291;28;20214;-73
2021/04/13 07:23:47;;;;;;;0.15;0.15;;;3.70;99.90;;;;;;4983164;28;21012;-73
2021/04/13 07:26:38;;;;;;;0.10;0.10;;;3.70;99.90;;;;;;4983216;28;20197;-73
2021/04/13 07:29:18;;;;;;;0.10;0.10;;;3.70;99.90;;;;;;4981886;28;20199;-73
2021/04/13 07:32:00;;;;;;;0.10;0.10;;;3.70;99.90;;;;;;4983597;28;20195;-72
2021/04/13 07:34:28;;;;;;;1.02;0.38;;;3.60;99.90;;;;;;4983076;28;20171;-72
2021/04/13 07:37:16;;;;;;;0.10;0.10;;;3.50;99.90;;;;;;4984533;28;20179;-74
2021/04/13 07:39:45;;;;;;;0.30;0.30;;;3.50;99.90;;;;;;4984607;28;20163;-73
2021/04/13 07:42:23;;;;;;;0.10;0.10;;;3.50;99.90;;;;;;4983439;28;20566;-72
2021/04/13 07:45:08;;;;;;;0.10;0.10;;;3.40;99.90;;;;;;4984265;28;20167;-73
2021/04/13 07:48:11;;;;;;;0.10;0.10;;;3.50;99.90;;;;;;4982907;28;20206;-73
2021/04/13 07:51:14;;;;;;;0.10;0.10;;;3.40;99.90;;;;;;4983939;28;20175;-72
2021/04/13 07:53:58;;;;;;;0.20;0.20;;;3.50;99.90;;;;;;4983548;28;20182;-72
2021/04/13 07:56:48;;;;;;;0.10;0.10;;;3.30;99.90;;;;;;4983976;28;20159;-72
2021/04/13 07:59:58;;;;;;;0.10;0.10;;;3.30;99.90;;;;;;4983890;28;20155;-72
2021/04/13 08:02:24;;;;;;;0.30;0.30;;;3.30;99.90;;;;;;4974607;28;20270;-73
2021/04/13 08:04:51;;;;;;;0.13;0.13;;;3.40;99.90;;;;;;4983406;28;20156;-72
2021/04/13 08:07:23;;;;;;;0.20;0.20;;;3.20;99.90;;;;;;4981919;28;20230;-71
2021/04/13 08:10:04;;;;;;;0.40;0.40;;;3.30;99.90;;;;;;4983087;28;20183;-71
2021/04/13 08:12:33;;;;;;;0.13;0.13;;;3.20;99.90;;;;;;4983689;28;20206;-72
2021/04/13 08:15:02;;;;;;;0.10;0.10;;;3.30;99.90;;;;;;4982168;28;20171;-72
2021/04/13 08:17:35;;;;;;;0.55;0.55;;;3.30;99.90;;;;;;4983502;28;20176;-72
2021/04/13 08:20:10;;;;;;;0.28;0.28;;;3.30;99.90;;;;;;4981458;28;20285;-73
2021/04/13 08:23:06;;;;;;;0.10;0.10;;;3.10;99.90;;;;;;4983259;28;20217;-73
2021/04/13 08:25:47;;;;;;;0.20;0.20;;;3.20;99.90;;;;;;4967474;28;20202;-73
2021/04/13 08:28:26;;;;;;;0.10;0.10;;;3.10;99.90;;;;;;4979175;28;20182;-73
2021/04/13 08:34:30;;;;;;;0.10;0.10;;;2.90;99.90;;;;;;4982692;28;20226;-74
2021/04/13 08:37:08;;;;;;;0.10;0.10;;;3.00;99.90;;;;;;4982105;28;20192;-73
2021/04/13 08:39:45;;;;;;;0.10;0.10;;;2.90;99.90;;;;;;4983317;28;20191;-72
2021/04/13 08:42:35;;;;;;;0.77;0.77;;;2.80;99.90;;;;;;4982707;28;20193;-73
2021/04/13 08:45:15;;;;;;;0.20;0.20;;;2.70;99.90;;;;;;4983150;28;20155;-73
2021/04/13 08:48:21;;;;;;;0.10;0.10;;;2.70;99.90;;;;;;4980739;28;20199;-73
2021/04/13 08:50:52;;;;;;;0.10;0.10;;;2.80;99.90;;;;;;4983047;28;20170;-73
2021/04/13 08:53:31;;;;;;;0.20;0.20;;;2.80;99.90;;;;;;4983243;28;20187;-71
2021/04/13 08:56:11;;;;;;;0.10;0.10;;;2.60;99.90;;;;;;4983444;28;20166;-73
2021/04/13 08:58:47;;;;;;;0.10;0.10;;;2.70;99.90;;;;;;4982537;28;20233;-74
2021/04/13 09:01:35;;;;;;;0.10;0.10;;;2.60;99.90;;;;;;4983304;28;20197;-72
2021/04/13 09:04:04;;;;;;;0.20;0.20;;;2.70;99.90;;;;;;4982576;28;20255;-72
2021/04/13 09:06:49;;;;;;;0.10;0.10;;;2.70;99.90;;;;;;4982857;28;20171;-71
2021/04/13 09:09:39;;;;;;;0.10;0.10;;;2.80;99.90;;;;;;4982050;28;20194;-72
2021/04/13 09:12:21;;;;;;;0.20;0.20;;;2.80;99.90;;;;;;4980808;28;20196;-73
2021/04/13 09:15:01;;;;;;;0.10;0.10;;;3.00;99.90;;;;;;4984351;28;20206;-73
2021/04/13 09:17:53;;;;;;;0.10;0.10;;;2.90;99.90;;;;;;4987568;28;20667;-72
2021/04/13 09:20:23;;;;;;;0.60;0.32;;;2.90;99.90;;;;;;4978307;28;20234;-73
2021/04/13 09:23:08;;;;;;;0.13;0.13;;;2.80;99.90;;;;;;4988174;28;20171;-73
2021/04/13 09:25:37;;;;;;;0.10;0.10;;;2.80;99.90;;;;;;4986919;28;20677;-74
2021/04/13 09:28:11;;;;;;;0.10;0.10;;;2.90;99.90;;;;;;4985704;28;20196;-73
2021/04/13 09:30:41;;;;;;;0.10;0.10;;;3.00;99.90;;;;;;4989286;28;20166;-73
2021/04/13 09:33:30;;;;;;;0.15;0.10;;;3.00;99.90;;;;;;4991740;28;20179;-72
2021/04/13 09:36:44;;;;;;;0.10;0.10;;;3.00;99.90;;;;;;4991515;28;20255;-73
2021/04/13 09:39:12;;;;;;;0.10;0.10;;;3.00;99.90;;;;;;4934897;29;20180;-71
2021/04/13 09:42:09;;;;;;;0.20;0.20;;;3.00;99.90;;;;;;4984032;28;20199;-73
2021/04/13 09:44:55;;;;;;;0.10;0.10;;;3.00;99.90;;;;;;4991342;28;20518;-73
2021/04/13 09:47:52;;;;;;;0.20;0.20;;;3.10;99.90;;;;;;4990343;28;20192;-72
2021/04/13 09:50:32;;;;;;;0.13;0.13;;;3.10;99.90;;;;;;4991245;28;20190;-72
2021/04/13 09:53:27;;;;;;;0.10;0.10;;;3.00;99.90;;;;;;4989676;28;20239;-73
2021/04/13 09:56:26;;;;;;;0.10;0.10;;;3.10;99.90;;;;;;4972136;28;20211;-72
2021/04/13 09:59:06;;;;;;;0.10;0.10;;;3.10;99.90;;;;;;4991439;28;20159;-72
2021/04/13 10:01:50;;;;;;;0.10;0.10;;;3.10;99.90;;;;;;4991042;28;20163;-73
2021/04/13 10:04:21;;;;;;;0.10;0.10;;;2.90;99.90;;;;;;4989910;28;20225;-73
2021/04/13 10:07:16;;;;;;;0.22;0.22;;;3.00;99.90;;;;;;4991419;28;20194;-74
2021/04/13 10:09:45;;;;;;;0.10;0.10;;;2.90;99.90;;;;;;4991070;28;20187;-71
2021/04/13 10:12:40;;;;;;;0.75;0.70;;;2.80;99.90;;;;;;4991174;28;20163;-72
2021/04/13 10:15:30;;;;;;;0.10;0.10;;;2.70;99.90;;;;;;4962767;28;20240;-72
2021/04/13 10:18:27;;;;;;;0.10;0.10;;;2.80;99.90;;;;;;4990703;28;20179;-73
2021/04/13 10:21:04;;;;;;;0.10;0.10;;;2.90;99.90;;;;;;4989673;28;20187;-72
2021/04/13 10:24:03;;;;;;;0.10;0.10;;;2.90;99.90;;;;;;4990252;28;20202;-71
2021/04/13 10:26:28;;;;;;;0.10;0.10;;;2.90;99.90;;;;;;4991761;28;20167;-72
2021/04/13 10:29:19;;;;;;;0.20;0.20;;;3.10;99.90;;;;;;4988912;28;20286;-72
2021/04/13 10:32:26;;;;;;;0.10;0.10;;;2.90;99.90;;;;;;4990780;28;20171;-74
2021/04/13 10:35:11;;;;;;;0.13;0.13;;;3.10;99.90;;;;;;4990524;28;20184;-73
2021/04/13 10:38:07;;;;;;;0.10;0.10;;;3.20;99.90;;;;;;4991427;28;20187;-73
2021/04/13 10:40:54;;;;;;;0.10;0.10;;;3.20;99.90;;;;;;4991736;28;20167;-72
2021/04/13 10:43:29;;;;;;;0.10;0.10;;;3.10;99.90;;;;;;4991209;28;20183;-74
2021/04/13 10:46:13;;;;;;;0.10;0.10;;;3.10;99.90;;;;;;4991225;28;20536;-72
2021/04/13 10:48:57;;;;;;;0.20;0.20;;;3.40;99.90;;;;;;4989281;28;20202;-74
2021/04/13 10:51:35;;;;;;;0.20;0.20;;;3.50;99.90;;;;;;4989338;28;20167;-72
2021/04/13 10:54:23;;;;;;;0.20;0.20;;;3.50;99.90;;;;;;4988348;28;20178;-74
2021/04/13 10:57:14;;;;;;;0.10;0.10;;;3.60;99.90;;;;;;4990281;28;20324;-73
2021/04/13 11:00:05;;;;;;;0.10;0.10;;;3.60;99.90;;;;;;4990921;28;20155;-72
2021/04/13 11:03:05;;;;;;;0.10;0.10;;;3.50;99.90;;;;;;4990695;28;20160;-71
2021/04/13 11:05:39;;;;;;;0.10;0.10;;;3.50;99.90;;;;;;4988952;28;20196;-71
2021/04/13 11:08:33;;;;;;;0.13;0.13;;;3.30;99.90;;;;;;4989260;28;20202;-73
2021/04/13 11:11:47;;;;;;;0.10;0.10;;;3.30;99.90;;;;;;4990547;28;20172;-73
2021/04/13 11:14:25;;;;;;;0.10;0.10;;;3.30;99.90;;;;;;4959315;28;20207;-73
2021/04/13 11:16:56;;;;;;;0.10;0.10;;;3.30;99.90;;;;;;4988184;28;20234;-74
2021/04/13 11:19:42;;;;;;;0.20;0.20;;;3.30;99.90;;;;;;4989438;28;20254;-72
2021/04/13 11:22:16;;;;;;;0.10;0.10;;;3.40;99.90;;;;;;4989556;28;20152;-74
2021/04/13 11:25:26;;;;;;;0.10;0.10;;;3.50;99.90;;;;;;4989868;28;20187;-74
2021/04/13 11:28:29;;;;;;;0.10;0.10;;;3.40;99.90;;;;;;4980611;28;20641;-72
2021/04/13 11:31:14;;;;;;;0.10;0.10;;;3.40;99.90;;;;;;4989347;28;20227;-72
2021/04/13 11:33:58;;;;;;;0.10;0.10;;;3.30;99.90;;;;;;4987139;28;20266;-71
2021/04/13 11:36:54;;;;;;;0.10;0.10;;;3.40;99.90;;;;;;4988962;28;20163;-72
2021/04/13 11:39:41;;;;;;;0.10;0.10;;;3.50;99.90;;;;;;4989099;28;20650;-73
2021/04/13 11:42:23;;;;;;;0.10;0.10;;;3.70;99.90;;;;;;4988361;28;20209;-72
2021/04/13 11:44:51;;;;;;;0.10;0.10;;;3.60;99.90;;;;;;4988007;28;20206;-74
2021/04/13 11:47:35;;;;;;;0.10;0.10;;;3.70;99.90;;;;;;4989422;28;20270;-73
2021/04/13 11:50:31;;;;;;;0.17;0.17;;;3.70;99.90;;;;;;4988997;28;20212;-74
2021/04/13 11:53:13;;;;;;;0.10;0.10;;;4.00;99.90;;;;;;4988347;28;20483;-73
2021/04/13 11:55:44;;;;;;;0.15;0.15;;;3.90;99.90;;;;;;4987499;28;20202;-72
2021/04/13 11:58:23;;;;;;;0.10;0.10;;;3.80;99.90;;;;;;4989187;28;20163;-72
2021/04/13 12:01:12;;;;;;;0.10;0.10;;;3.70;99.90;;;;;;4988603;28;20164;-73
2021/04/13 12:03:57;;;;;;;0.20;0.20;;;3.80;99.90;;;;;;4977319;28;20606;-71
2021/04/13 12:06:47;;;;;;;0.47;0.35;;;3.80;99.90;;;;;;4988721;28;20171;-72
2021/04/13 12:09:59;;;;;;;0.10;0.10;;;3.80;99.90;;;;;;4988548;28;20215;-71
2021/04/13 12:12:31;;;;;;;0.10;0.10;;;3.90;99.90;;;;;;4988623;28;20159;-74
2021/04/13 12:15:17;;;;;;;0.10;0.10;;;4.00;99.90;;;;;;4988415;28;20210;-72
2021/04/13 12:18:22;;;;;;;0.10;0.10;;;3.90;99.90;;;;;;4957870;28;20191;-71
2021/04/13 12:20:48;;;;;;;0.10;0.10;;;3.90;99.90;;;;;;4981458;28;20238;-72
2021/04/13 12:23:14;;;;;;;0.10;0.10;;;4.00;99.90;;;;;;4986947;28;20239;-73
2021/04/13 12:25:43;;;;;;;0.13;0.13;;;4.10;99.90;;;;;;4989244;28;20203;-72
2021/04/13 12:28:29;;;;;;;0.10;0.10;;;4.10;99.90;;;;;;4988823;28;20270;-73
2021/04/13 12:31:23;;;;;;;0.10;0.10;;;3.90;99.90;;;;;;4982104;28;20245;-73
2021/04/13 12:33:50;;;;;;;0.10;0.10;;;3.80;99.90;;;;;;4989163;28;20175;-73
2021/04/13 12:36:52;;;;;;;0.20;0.20;;;4.00;99.90;;;;;;4988088;28;20166;-73
2021/04/13 12:39:51;;;;;;;0.10;0.10;;;4.00;99.90;;;;;;4989321;28;20202;-72
2021/04/13 12:42:39;;;;;;;0.10;0.10;;;4.10;99.90;;;;;;4989182;28;20167;-72
2021/04/13 12:45:24;;;;;;;0.10;0.10;;;4.10;99.90;;;;;;4987924;28;20207;-73
2021/04/13 12:47:52;;;;;;;0.10;0.10;;;4.40;99.90;;;;;;4988908;28;20218;-72
2021/04/13 12:50:35;;;;;;;0.10;0.10;;;4.30;99.90;;;;;;4989285;28;20155;-72
2021/04/13 12:53:03;;;;;;;2.40;2.30;;;4.10;99.90;;;;;;4988858;28;20164;-73
2021/04/13 12:55:29;;;;;;;0.38;0.38;;;4.20;99.90;;;;;;4988739;28;20195;-73
2021/04/13 12:57:59;;;;;;;0.10;0.10;;;4.20;99.90;;;;;;4989117;28;20170;-72
2021/04/13 13:00:37;;;;;;;0.30;0.30;;;4.20;99.90;;;;;;4988562;28;20247;-73
2021/04/13 13:03:29;;;;;;;0.10;0.10;;;4.10;99.90;;;;;;4987542;28;20258;-73
2021/04/13 13:05:55;;;;;;;0.20;0.20;;;4.30;99.90;;;;;;4990515;28;20219;-73
2021/04/13 13:08:30;;;;;;;0.40;0.40;;;4.50;99.90;;;;;;4991212;28;20198;-72
2021/04/13 13:11:07;;;;;;;0.10;0.10;;;4.50;99.90;;;;;;4992555;28;20159;-72
2021/04/13 13:13:37;;;;;;;0.20;0.20;;;4.70;99.90;;;;;;4992866;28;20592;-72
2021/04/13 13:16:20;;;;;;;0.10;0.10;;;4.60;99.90;;;;;;4991041;28;20230;-73
2021/04/13 13:18:50;;;;;;;0.10;0.10;;;4.40;99.90;;;;;;4991015;28;20223;-73
2021/04/13 13:21:29;;;;;;;0.10;0.10;;;4.70;99.90;;;;;;4992531;28;20156;-73
2021/04/13 13:23:59;;;;;;;0.10;0.10;;;4.90;99.90;;;;;;4992476;28;20163;-73
2021/04/13 13:26:25;;;;;;;0.20;0.20;;;4.80;99.90;;;;;;4992602;28;20161;-73
2021/04/13 13:28:50;;;;;;;0.10;0.10;;;4.90;99.90;;;;;;4990815;28;20226;-74
2021/04/13 13:31:25;;;;;;;0.10;0.10;;;5.10;99.90;;;;;;4992429;28;20159;-73
2021/04/13 13:33:53;;;;;;;0.10;0.10;;;5.20;99.90;;;;;;4990887;28;20167;-74
2021/04/13 13:36:19;;;;;;;0.10;0.10;;;5.40;99.90;;;;;;4991891;28;20186;-73
2021/04/13 13:38:46;;;;;;;0.10;0.10;;;5.40;99.90;;;;;;4988933;28;20261;-72
2021/04/13 13:41:16;;;;;;;0.10;0.10;;;5.30;99.90;;;;;;4991305;28;20227;-72
2021/04/13 13:43:42;;;;;;;0.10;0.10;;;5.40;99.90;;;;;;4991701;28;20174;-72
2021/04/13 13:46:22;;;;;;;0.20;0.20;;;5.10;99.90;;;;;;4990147;28;20274;-73
2021/04/13 13:48:49;;;;;;;0.10;0.10;;;5.10;99.90;;;;;;4989167;28;20262;-72
2021/04/13 13:51:35;;;;;;;0.10;0.10;;;5.40;99.90;;;;;;4990325;28;20155;-72
2021/04/13 13:54:31;;;;;;;0.05;0.05;;;5.30;99.90;;;;;;4990466;28;20160;-73
2021/04/13 13:57:18;;;;;;;0.40;0.40;;;5.40;99.90;;;;;;4934078;29;20215;-73
2021/04/13 13:59:51;;;;;;;0.10;0.10;;;5.40;99.90;;;;;;4949719;29;20193;-72
2021/04/13 14:02:43;;;;;;;0.10;0.10;;;5.60;99.90;;;;;;4949679;29;20179;-74
2021/04/13 14:05:23;;;;;;;0.10;0.10;;;5.70;99.90;;;;;;4946263;29;20243;-73